createdAt,value
2022-12-20T00:00:16.712Z,16.07
2022-12-20T00:02:46.709Z,18.20
2022-12-20T00:05:16.683Z,17.00
2022-12-20T00:07:46.635Z,17.40
2022-12-20T00:10:16.809Z,18.17
2022-12-20T00:12:46.742Z,17.67
2022-12-20T00:15:19.396Z,16.87
2022-12-20T00:17:49.465Z,16.07
2022-12-20T00:20:19.551Z,17.33
2022-12-20T00:22:49.624Z,17.07
2022-12-20T00:25:20.796Z,16.60
2022-12-20T00:27:51.137Z,16.43
2022-12-20T00:30:23.795Z,16.70
2022-12-20T00:32:53.723Z,17.07
2022-12-20T00:35:23.627Z,16.97
2022-12-20T00:37:54.742Z,18.53
2022-12-20T00:40:24.749Z,18.90
2022-12-20T00:42:56.291Z,15.97
2022-12-20T00:45:28.971Z,15.73
2022-12-20T00:47:58.911Z,16.17
2022-12-20T00:50:28.922Z,16.10
2022-12-20T00:52:58.949Z,17.03
2022-12-20T00:55:28.921Z,17.33
2022-12-20T00:57:58.880Z,17.27
2022-12-20T01:00:31.488Z,17.40
2022-12-20T01:03:01.513Z,16.93
2022-12-20T01:05:31.794Z,16.60
2022-12-20T01:08:02.032Z,16.70
2022-12-20T01:10:32.054Z,18.93
2022-12-20T01:13:02.893Z,17.63
2022-12-20T01:15:36.424Z,18.13
2022-12-20T01:18:06.636Z,17.23
2022-12-20T01:20:36.646Z,18.13
2022-12-20T01:23:06.563Z,17.83
2022-12-20T01:25:36.495Z,17.07
2022-12-20T01:28:07.113Z,17.17
2022-12-20T01:30:43.479Z,16.20
2022-12-20T01:33:13.440Z,17.13
2022-12-20T01:35:43.424Z,18.47
2022-12-20T01:38:13.350Z,18.90
2022-12-20T01:40:43.321Z,18.77
2022-12-20T01:43:15.441Z,17.43
2022-12-20T01:45:48.066Z,16.77
2022-12-20T01:48:21.701Z,15.80
2022-12-20T01:50:52.843Z,18.38
2022-12-20T01:53:25.810Z,17.13
2022-12-20T01:55:56.365Z,16.87
2022-12-20T01:58:26.495Z,15.47
2022-12-20T02:00:59.891Z,17.43
2022-12-20T02:03:33.000Z,18.80
2022-12-20T02:06:18.335Z,16.27
2022-12-20T02:08:51.040Z,16.30
2022-12-20T02:11:33.959Z,15.47
2022-12-20T02:14:14.249Z,16.60
2022-12-20T02:16:54.645Z,18.23
2022-12-20T02:19:55.595Z,17.13
2022-12-20T02:22:32.629Z,16.33
2022-12-20T02:25:35.303Z,17.63
2022-12-20T02:28:14.938Z,17.40
2022-12-20T02:30:50.265Z,19.13
2022-12-20T02:33:22.426Z,16.30
2022-12-20T02:35:52.366Z,17.77
2022-12-20T02:38:32.497Z,19.33
2022-12-20T02:41:08.001Z,18.60
2022-12-20T02:43:53.751Z,21.17
2022-12-20T02:46:29.031Z,19.13
2022-12-20T02:49:02.538Z,18.60
2022-12-20T02:51:34.998Z,19.58
2022-12-20T02:54:05.286Z,17.90
2022-12-20T02:56:40.072Z,19.10
2022-12-20T02:59:15.324Z,20.73
2022-12-20T03:01:51.379Z,18.27
2022-12-20T03:04:24.155Z,17.73
2022-12-20T03:07:04.838Z,18.30
2022-12-20T03:09:36.660Z,17.60
2022-12-20T03:12:07.891Z,17.90
2022-12-20T03:14:40.315Z,17.60
2022-12-20T03:17:15.756Z,18.00
2022-12-20T03:19:45.938Z,17.25
2022-12-20T03:22:15.891Z,15.70
2022-12-20T03:24:45.824Z,19.03
2022-12-20T03:27:16.686Z,18.07
2022-12-20T03:29:47.392Z,19.07
2022-12-20T03:32:20.030Z,18.27
2022-12-20T03:34:50.259Z,19.10
2022-12-20T03:37:26.295Z,18.40
2022-12-20T03:39:56.388Z,17.10
2022-12-20T03:42:26.461Z,19.03
2022-12-20T03:44:56.639Z,18.03
2022-12-20T03:47:31.892Z,18.30
2022-12-20T03:50:01.899Z,17.87
2022-12-20T03:52:35.254Z,18.10
2022-12-20T03:55:05.349Z,18.03
2022-12-20T03:57:44.054Z,18.37
2022-12-20T04:00:36.177Z,16.53
2022-12-20T04:03:28.840Z,17.70
2022-12-20T04:05:59.093Z,19.10
2022-12-20T04:08:29.064Z,18.63
2022-12-20T04:11:26.234Z,17.43
2022-12-20T04:14:07.710Z,16.83
2022-12-20T04:16:38.973Z,19.80
2022-12-20T04:19:12.675Z,18.27
2022-12-20T04:21:46.497Z,18.00
2022-12-20T04:24:18.121Z,17.77
2022-12-20T04:27:00.452Z,19.10
2022-12-20T04:29:30.903Z,17.67
2022-12-20T04:32:01.765Z,18.70
2022-12-20T04:34:34.675Z,18.00
2022-12-20T04:37:05.023Z,18.83
2022-12-20T04:39:47.261Z,17.20
2022-12-20T04:42:37.568Z,17.90
2022-12-20T04:45:08.616Z,18.33
2022-12-20T04:47:38.623Z,18.10
2022-12-20T04:50:13.103Z,19.53
2022-12-20T04:52:58.332Z,17.90
2022-12-20T04:55:29.029Z,18.30
2022-12-20T04:58:05.462Z,18.07
2022-12-20T05:00:38.866Z,17.10
2022-12-20T05:03:21.624Z,18.53
2022-12-20T05:05:54.428Z,19.30
2022-12-20T05:08:25.973Z,20.02
2022-12-20T05:10:56.644Z,19.27
2022-12-20T05:13:26.889Z,17.97
2022-12-20T05:15:58.416Z,18.40
2022-12-20T05:18:32.860Z,19.37
2022-12-20T05:21:24.167Z,19.10
2022-12-20T05:24:08.673Z,19.40
2022-12-20T05:26:52.111Z,18.47
2022-12-20T05:29:22.952Z,18.70
2022-12-20T05:31:53.736Z,16.37
2022-12-20T05:34:24.795Z,17.73
2022-12-20T05:36:59.673Z,16.70
2022-12-20T05:39:33.938Z,19.30
2022-12-20T05:42:07.463Z,17.85
2022-12-20T05:44:37.529Z,17.70
2022-12-20T05:47:08.344Z,16.73
2022-12-20T05:49:40.524Z,18.07
2022-12-20T05:52:15.885Z,18.63
2022-12-20T05:54:45.976Z,17.50
2022-12-20T05:57:20.823Z,18.20
2022-12-20T05:59:51.099Z,19.13
2022-12-20T06:02:25.668Z,18.77
2022-12-20T06:05:03.654Z,18.63
2022-12-20T06:07:37.481Z,17.67
2022-12-20T06:10:09.437Z,18.03
2022-12-20T06:12:55.859Z,18.37
2022-12-20T06:15:28.248Z,19.93
2022-12-20T06:17:58.379Z,17.00
2022-12-20T06:20:28.678Z,18.37
2022-12-20T06:23:03.230Z,19.87
2022-12-20T06:25:40.922Z,18.73
2022-12-20T06:28:11.057Z,18.73
2022-12-20T06:30:41.101Z,18.63
2022-12-20T06:33:16.620Z,17.40
2022-12-20T06:35:46.589Z,19.70
2022-12-20T06:38:20.095Z,20.60
2022-12-20T06:40:50.079Z,21.63
2022-12-20T06:43:20.185Z,21.27
2022-12-20T06:45:51.060Z,21.47
2022-12-20T06:48:21.415Z,20.47
2022-12-20T06:50:56.122Z,19.80
2022-12-20T06:53:30.275Z,20.20
2022-12-20T06:56:00.300Z,18.70
2022-12-20T06:58:30.271Z,18.40
2022-12-20T07:01:00.904Z,18.40
2022-12-20T07:03:31.079Z,19.47
2022-12-20T07:06:01.002Z,18.07
2022-12-20T07:08:33.773Z,20.17
2022-12-20T07:11:08.462Z,17.87
2022-12-20T07:13:38.545Z,18.67
2022-12-20T07:16:09.542Z,19.87
2022-12-20T07:18:39.525Z,19.30
2022-12-20T07:21:10.163Z,18.60
2022-12-20T07:23:42.849Z,21.00
2022-12-20T07:26:13.874Z,18.43
2022-12-20T07:28:45.081Z,17.77
2022-12-20T07:31:15.183Z,19.80
2022-12-20T07:33:45.119Z,21.57
2022-12-20T07:36:16.390Z,19.33
2022-12-20T07:38:49.155Z,18.30
2022-12-20T07:41:20.902Z,26.13
2022-12-20T07:43:50.919Z,22.40
2022-12-20T07:46:21.738Z,19.30
2022-12-20T07:48:51.820Z,19.43
2022-12-20T07:51:26.425Z,16.70
2022-12-20T07:54:05.125Z,20.90
2022-12-20T07:56:41.082Z,20.03
2022-12-20T07:59:14.151Z,20.50
2022-12-20T08:01:46.737Z,18.77
2022-12-20T08:04:21.155Z,20.00
2022-12-20T08:06:53.252Z,21.13
2022-12-20T08:09:28.325Z,18.27
2022-12-20T08:11:58.469Z,20.20
2022-12-20T08:14:28.501Z,17.83
2022-12-20T08:16:58.524Z,18.97
2022-12-20T08:19:32.488Z,18.73
2022-12-20T08:24:36.112Z,18.37
2022-12-20T08:27:06.149Z,18.27
2022-12-20T08:29:36.253Z,18.67
2022-12-20T08:32:06.412Z,17.83
2022-12-20T08:34:36.329Z,16.33
2022-12-20T08:37:12.403Z,18.03
2022-12-20T08:39:47.177Z,16.47
2022-12-20T08:42:19.984Z,16.37
2022-12-20T08:44:49.939Z,17.33
2022-12-20T08:47:19.978Z,15.07
2022-12-20T08:49:50.203Z,16.00
2022-12-20T08:52:20.171Z,18.08
2022-12-20T08:54:52.879Z,16.10
2022-12-20T08:57:22.844Z,14.70
2022-12-20T08:59:52.872Z,18.17
2022-12-20T09:02:23.102Z,15.07
2022-12-20T09:04:53.226Z,18.00
2022-12-20T09:07:23.254Z,14.73
2022-12-20T09:09:55.816Z,15.90
2022-12-20T09:12:25.828Z,13.80
2022-12-20T09:14:55.785Z,16.27
2022-12-20T09:17:25.746Z,14.85
2022-12-20T09:19:55.710Z,14.32
2022-12-20T09:22:25.655Z,14.80
2022-12-20T09:24:58.606Z,13.50
2022-12-20T09:27:28.610Z,11.73
2022-12-20T09:29:58.600Z,13.75
2022-12-20T09:32:28.526Z,13.40
2022-12-20T09:34:58.503Z,12.93
2022-12-20T09:37:30.691Z,13.63
2022-12-20T09:40:03.520Z,13.30
2022-12-20T09:42:34.442Z,14.73
2022-12-20T09:45:08.828Z,13.55
2022-12-20T09:47:40.336Z,14.52
2022-12-20T09:50:17.497Z,12.90
2022-12-20T09:53:06.018Z,13.02
2022-12-20T09:55:46.513Z,13.57
2022-12-20T09:58:40.397Z,14.90
2022-12-20T10:01:24.698Z,13.18
2022-12-20T10:03:56.573Z,12.65
2022-12-20T10:06:37.727Z,13.63
2022-12-20T10:09:15.376Z,13.48
2022-12-20T10:12:03.483Z,15.80
2022-12-20T10:14:53.164Z,14.63
2022-12-20T10:17:35.166Z,15.37
2022-12-20T10:20:19.112Z,13.67
2022-12-20T10:22:54.694Z,13.85
2022-12-20T10:25:26.690Z,13.30
2022-12-20T10:28:00.373Z,14.67
2022-12-20T10:30:31.660Z,14.65
2022-12-20T10:33:02.840Z,13.23
2022-12-20T10:35:36.629Z,14.50
2022-12-20T10:38:09.396Z,14.50
2022-12-20T10:43:45.267Z,14.30
2022-12-20T10:46:17.338Z,14.00
2022-12-20T10:48:49.054Z,14.20
2022-12-20T10:51:21.139Z,13.80
2022-12-20T10:54:01.176Z,12.23
2022-12-20T10:56:32.643Z,12.50
2022-12-20T10:59:09.377Z,12.88
2022-12-20T11:01:40.400Z,11.85
2022-12-20T11:04:27.993Z,12.82
2022-12-20T11:07:00.175Z,11.48
2022-12-20T11:09:36.417Z,12.23
2022-12-20T11:12:09.493Z,13.05
2022-12-20T11:14:46.300Z,12.05
2022-12-20T11:17:30.057Z,11.48
2022-12-20T11:20:33.355Z,12.30
2022-12-20T11:23:16.481Z,12.57
2022-12-20T11:26:11.841Z,10.65
2022-12-20T11:28:56.910Z,11.80
2022-12-20T11:31:42.826Z,11.32
2022-12-20T11:34:24.611Z,11.75
2022-12-20T11:37:11.718Z,10.98
2022-12-20T11:39:47.603Z,11.00
2022-12-20T11:42:25.848Z,11.43
2022-12-20T11:45:09.549Z,10.80
2022-12-20T11:48:01.149Z,10.73
2022-12-20T11:50:42.008Z,11.30
2022-12-20T11:53:16.509Z,11.80
2022-12-20T11:55:49.749Z,10.60
2022-12-20T11:58:24.889Z,11.25
2022-12-20T12:01:00.358Z,12.80
2022-12-20T12:03:37.503Z,11.10
2022-12-20T12:06:11.321Z,10.98
2022-12-20T12:08:50.148Z,10.85
2022-12-20T12:14:25.374Z,11.77
2022-12-20T12:16:59.389Z,11.10
2022-12-20T12:19:34.575Z,10.98
2022-12-20T12:22:08.333Z,16.63
2022-12-20T12:24:42.670Z,9.95
2022-12-20T12:29:46.446Z,10.68
2022-12-20T12:32:22.353Z,11.13
2022-12-20T12:35:19.301Z,12.20
2022-12-20T12:38:05.342Z,13.48
2022-12-20T12:41:09.871Z,12.40
2022-12-20T12:43:52.357Z,11.32
2022-12-20T12:46:28.012Z,10.48
2022-12-20T12:49:03.784Z,11.15
2022-12-20T12:51:40.173Z,10.77
2022-12-20T12:54:21.862Z,11.88
2022-12-20T12:56:53.140Z,10.93
2022-12-20T12:59:43.992Z,10.55
2022-12-20T13:02:38.377Z,11.63
2022-12-20T13:05:33.938Z,11.50
2022-12-20T13:08:07.428Z,10.25
2022-12-20T13:11:01.693Z,7.60
2022-12-20T13:13:31.806Z,9.65
2022-12-20T13:16:16.045Z,11.35
2022-12-20T13:19:05.124Z,7.43
2022-12-20T13:21:39.943Z,11.20
2022-12-20T13:24:41.181Z,10.65
2022-12-20T13:27:27.301Z,9.70
2022-12-20T13:30:03.717Z,10.80
2022-12-20T13:32:59.888Z,12.00
2022-12-20T13:35:43.786Z,10.60
2022-12-20T13:38:53.069Z,12.63
2022-12-20T13:41:36.453Z,11.35
2022-12-20T13:44:34.653Z,10.27
2022-12-20T13:47:11.333Z,10.02
2022-12-20T13:49:43.051Z,10.95
2022-12-20T13:52:24.808Z,10.95
2022-12-20T13:54:58.524Z,10.55
2022-12-20T13:57:33.509Z,11.32
2022-12-20T14:00:09.033Z,10.73
2022-12-20T14:02:44.794Z,10.23
2022-12-20T14:05:22.195Z,9.27
2022-12-20T14:08:03.502Z,11.25
2022-12-20T14:10:35.428Z,10.48
2022-12-20T14:13:06.206Z,10.38
2022-12-20T14:15:39.586Z,11.13
2022-12-20T14:18:20.012Z,10.05
2022-12-20T14:20:52.979Z,10.32
2022-12-20T14:23:28.872Z,10.88
2022-12-20T14:26:01.177Z,9.75
2022-12-20T14:28:37.610Z,11.68
2022-12-20T14:31:26.363Z,10.45
2022-12-20T14:34:05.936Z,10.82
2022-12-20T14:36:36.594Z,11.25
2022-12-20T14:39:29.650Z,10.90
2022-12-20T14:42:02.976Z,11.65
2022-12-20T14:44:34.918Z,11.38
2022-12-20T14:47:16.713Z,12.38
2022-12-20T14:49:52.519Z,10.88
2022-12-20T14:52:27.865Z,11.30
2022-12-20T14:55:08.875Z,12.10
2022-12-20T14:57:47.258Z,13.63
2022-12-20T15:00:23.973Z,11.45
2022-12-20T15:03:03.452Z,10.40
2022-12-20T15:05:56.018Z,11.32
2022-12-20T15:08:29.119Z,11.10
2022-12-20T15:11:03.790Z,11.55
2022-12-20T15:13:36.095Z,11.45
2022-12-20T15:16:08.300Z,12.40
2022-12-20T15:18:41.032Z,11.23
2022-12-20T15:21:19.773Z,10.60
2022-12-20T15:23:51.615Z,11.57
2022-12-20T15:26:25.315Z,10.45
2022-12-20T15:28:56.374Z,12.90
2022-12-20T15:31:33.499Z,12.93
2022-12-20T15:34:07.237Z,10.93
2022-12-20T15:36:38.480Z,10.80
2022-12-20T15:39:13.249Z,10.93
2022-12-20T15:41:46.575Z,11.15
2022-12-20T15:44:18.852Z,12.45
2022-12-20T15:46:48.988Z,10.98
2022-12-20T15:49:23.729Z,11.95
2022-12-20T15:51:55.657Z,11.63
2022-12-20T15:54:27.843Z,11.18
2022-12-20T15:56:59.332Z,13.60
2022-12-20T16:02:25.280Z,12.90
2022-12-20T16:04:58.968Z,12.30
2022-12-20T16:07:29.260Z,13.52
2022-12-20T16:09:59.241Z,11.10
2022-12-20T16:12:32.405Z,13.25
2022-12-20T16:15:02.451Z,12.32
2022-12-20T16:17:32.477Z,11.88
2022-12-20T16:20:05.068Z,12.93
2022-12-20T16:22:35.127Z,12.68
2022-12-20T16:25:05.086Z,12.77
2022-12-20T16:27:35.106Z,11.77
2022-12-20T16:30:05.110Z,12.55
2022-12-20T16:32:35.259Z,14.30
2022-12-20T16:35:08.578Z,13.00
2022-12-20T16:37:39.541Z,13.30
2022-12-20T16:40:12.999Z,12.52
2022-12-20T16:42:42.976Z,13.10
2022-12-20T16:45:18.857Z,13.23
2022-12-20T16:47:49.066Z,12.70
2022-12-20T16:50:22.902Z,14.05
2022-12-20T16:52:53.188Z,12.90
2022-12-20T16:55:25.255Z,14.52
2022-12-20T16:57:56.307Z,13.23
2022-12-20T17:00:29.731Z,15.57
2022-12-20T17:02:59.919Z,16.13
2022-12-20T17:05:35.290Z,16.47
2022-12-20T17:13:19.843Z,13.57
2022-12-20T17:15:50.306Z,13.57
2022-12-20T17:18:20.350Z,14.90
2022-12-20T17:20:52.842Z,14.83
2022-12-20T17:23:22.794Z,16.60
2022-12-20T17:25:54.516Z,15.63
2022-12-20T17:28:26.378Z,20.90
2022-12-20T17:30:57.296Z,19.17
2022-12-20T17:33:29.837Z,16.57
2022-12-20T17:36:02.400Z,15.87
2022-12-20T17:38:32.273Z,15.37
2022-12-20T17:41:02.339Z,17.30
2022-12-20T17:43:32.239Z,16.53
2022-12-20T17:46:02.261Z,15.43
2022-12-20T17:48:35.594Z,15.27
2022-12-20T17:51:17.534Z,15.50
2022-12-20T17:53:47.943Z,16.63
2022-12-20T17:56:20.204Z,15.93
2022-12-20T17:58:50.170Z,15.57
2022-12-20T18:01:23.451Z,16.33
2022-12-20T18:04:04.697Z,16.20
2022-12-20T18:06:39.453Z,16.90
2022-12-20T18:09:14.503Z,15.18
2022-12-20T18:11:45.132Z,16.67
2022-12-20T18:14:15.681Z,16.77
2022-12-20T18:16:46.358Z,15.20
2022-12-20T18:19:20.570Z,15.13
2022-12-20T18:21:53.204Z,15.65
2022-12-20T18:24:23.301Z,14.95
2022-12-20T18:26:53.257Z,15.27
2022-12-20T18:29:23.491Z,14.30
2022-12-20T18:31:53.525Z,15.40
2022-12-20T18:34:23.825Z,14.77
2022-12-20T18:36:56.408Z,13.90
2022-12-20T18:39:26.680Z,13.43
2022-12-20T18:41:56.761Z,13.30
2022-12-20T18:44:26.785Z,14.40
2022-12-20T18:46:56.754Z,13.05
2022-12-20T18:49:27.548Z,13.70
2022-12-20T18:52:01.876Z,13.95
2022-12-20T18:54:32.589Z,13.25
2022-12-20T18:57:05.909Z,14.47
2022-12-20T18:59:36.399Z,14.60
2022-12-20T19:02:06.784Z,14.48
2022-12-20T19:04:36.862Z,13.90
2022-12-20T19:07:11.211Z,14.32
2022-12-20T19:12:11.546Z,13.97
2022-12-20T19:14:41.619Z,14.88
2022-12-20T19:17:12.741Z,15.35
2022-12-20T19:19:42.733Z,17.93
2022-12-20T19:22:15.320Z,17.52
2022-12-20T19:24:45.277Z,14.25
2022-12-20T19:27:15.906Z,15.52
2022-12-20T19:29:45.844Z,14.55
2022-12-20T19:32:15.831Z,13.30
2022-12-20T19:34:46.216Z,14.02
2022-12-20T19:37:19.831Z,14.63
2022-12-20T19:39:50.063Z,13.93
2022-12-20T19:42:24.895Z,12.93
2022-12-20T19:44:56.438Z,14.75
2022-12-20T19:47:26.882Z,13.45
2022-12-20T19:49:56.938Z,15.20
2022-12-20T19:52:32.596Z,15.30
2022-12-20T19:55:02.590Z,18.90
2022-12-20T19:57:32.542Z,15.65
2022-12-20T20:00:02.840Z,11.23
2022-12-20T20:02:41.874Z,11.65
2022-12-20T20:05:15.167Z,12.55
2022-12-20T20:07:48.056Z,12.48
2022-12-20T20:10:18.183Z,13.18
2022-12-20T20:12:48.152Z,13.50
2022-12-20T20:15:18.360Z,13.35
2022-12-20T20:17:48.299Z,12.27
2022-12-20T20:20:18.418Z,12.85
2022-12-20T20:22:51.296Z,10.95
2022-12-20T20:25:21.536Z,13.43
2022-12-20T20:27:51.478Z,13.02
2022-12-20T20:30:21.528Z,13.02
2022-12-20T20:32:53.636Z,12.98
2022-12-20T20:35:23.718Z,13.17
2022-12-20T20:37:56.657Z,13.32
2022-12-20T20:40:26.621Z,11.48
2022-12-20T20:42:56.885Z,13.68
2022-12-20T20:45:26.829Z,13.02
2022-12-20T20:48:01.129Z,13.40
2022-12-20T20:50:34.227Z,13.07
2022-12-20T20:53:07.493Z,13.32
2022-12-20T20:55:38.021Z,13.25
2022-12-20T20:58:10.066Z,13.23
2022-12-20T21:00:40.004Z,13.57
2022-12-20T21:03:12.032Z,13.52
2022-12-20T21:08:34.539Z,12.75
2022-12-20T21:11:07.934Z,12.88
2022-12-20T21:13:38.441Z,14.43
2022-12-20T21:16:09.663Z,13.43
2022-12-20T21:18:40.851Z,13.45
2022-12-20T21:21:12.516Z,12.75
2022-12-20T21:23:48.112Z,12.93
2022-12-20T21:26:19.824Z,13.43
2022-12-20T21:28:50.122Z,12.43
2022-12-20T21:31:22.050Z,12.82
2022-12-20T21:33:52.021Z,12.85
2022-12-20T21:36:22.693Z,12.52
2022-12-20T21:38:56.960Z,13.85
2022-12-20T21:41:28.950Z,12.43
2022-12-20T21:44:00.535Z,12.48
2022-12-20T21:46:34.785Z,12.32
2022-12-20T21:49:04.889Z,14.40
2022-12-20T21:51:35.469Z,11.25
2022-12-20T21:54:08.223Z,12.13
2022-12-20T21:56:38.334Z,12.43
2022-12-20T21:59:08.674Z,11.98
2022-12-20T22:01:39.083Z,13.27
2022-12-20T22:04:09.905Z,13.63
2022-12-20T22:06:39.894Z,12.07
2022-12-20T22:09:12.713Z,13.13
2022-12-20T22:11:43.282Z,13.70
2022-12-20T22:14:15.408Z,12.88
2022-12-20T22:16:45.498Z,13.15
2022-12-20T22:19:16.646Z,12.20
2022-12-20T22:21:48.030Z,12.80
2022-12-20T22:24:23.602Z,12.30
2022-12-20T22:26:53.596Z,12.32
2022-12-20T22:29:23.570Z,12.45
2022-12-20T22:31:53.686Z,14.25
2022-12-20T22:34:23.669Z,14.07
2022-12-20T22:36:54.598Z,12.38
2022-12-20T22:39:27.146Z,13.13
2022-12-20T22:41:57.099Z,12.80
2022-12-20T22:44:27.013Z,12.20
2022-12-20T22:46:56.975Z,11.63
2022-12-20T22:49:26.916Z,12.90
2022-12-20T22:52:06.769Z,12.90
2022-12-20T22:54:41.158Z,12.68
2022-12-20T22:57:14.759Z,14.88
2022-12-20T22:59:44.768Z,14.43
2022-12-20T23:02:14.944Z,13.00
2022-12-20T23:04:45.204Z,13.30
2022-12-20T23:07:15.127Z,13.32
2022-12-20T23:09:48.208Z,13.25
2022-12-20T23:12:30.984Z,14.80
2022-12-20T23:15:13.431Z,13.80
2022-12-20T23:17:43.363Z,14.75
2022-12-20T23:20:26.516Z,14.93
2022-12-20T23:22:56.497Z,13.63
2022-12-20T23:25:29.047Z,14.70
2022-12-20T23:27:58.983Z,13.45
2022-12-20T23:30:28.974Z,13.20
2022-12-20T23:32:58.946Z,14.90
2022-12-20T23:35:28.856Z,14.88
2022-12-20T23:37:59.197Z,13.98
2022-12-20T23:40:31.726Z,17.30
2022-12-20T23:43:02.488Z,37.90
2022-12-20T23:45:32.434Z,21.60
2022-12-20T23:48:02.409Z,21.30
2022-12-20T23:50:32.687Z,17.05
2022-12-20T23:53:03.006Z,16.77
2022-12-20T23:55:35.555Z,16.65
2022-12-20T23:58:05.506Z,15.48
